Time;durP1;ratioP1;P1;durP2;ratioP2;P2;SDS_P1;SDS_P2;PMS_P1;PMS_P2;Temp;Humidity;BMP_temperature;BMP_pressure;BME280_temperature;BME280_humidity;BME280_pressure;Samples;Min_cycle;Max_cycle;Signal;HPM_P1;HPM_P2
2023/08/03 00:00:17;;;;;;;3.07;1.10;;;17.50;99.90;;;;;;5052717;28;20197;-69
2023/08/03 00:02:42;;;;;;;2.97;1.30;;;17.50;99.90;;;;;;5052729;28;20602;-70
2023/08/03 00:05:08;;;;;;;4.30;1.97;;;17.60;99.90;;;;;;5052295;28;20167;-71
2023/08/03 00:07:33;;;;;;;1.73;0.90;;;17.60;99.90;;;;;;5051444;28;20526;-71
2023/08/03 00:09:59;;;;;;;1.43;1.00;;;17.60;99.90;;;;;;5048499;28;20205;-71
2023/08/03 00:12:25;;;;;;;1.33;0.87;;;17.60;99.90;;;;;;5052388;28;20558;-70
2023/08/03 00:14:52;;;;;;;1.03;0.93;;;17.70;99.90;;;;;;5051074;28;20182;-70
2023/08/03 00:17:17;;;;;;;1.30;0.70;;;17.70;99.90;;;;;;5052144;28;20397;-70
2023/08/03 00:19:43;;;;;;;1.97;0.80;;;17.80;99.90;;;;;;5052195;28;20421;-70
2023/08/03 00:22:09;;;;;;;1.10;0.60;;;17.80;99.90;;;;;;5052279;28;20199;-70
2023/08/03 00:24:35;;;;;;;1.00;0.77;;;17.90;99.90;;;;;;5042999;28;20274;-70
2023/08/03 00:27:01;;;;;;;3.33;1.23;;;17.90;99.90;;;;;;5051674;28;20504;-70
2023/08/03 00:29:26;;;;;;;2.80;0.70;;;17.90;99.90;;;;;;5052054;28;20492;-71
2023/08/03 00:31:52;;;;;;;0.90;0.80;;;18.00;99.90;;;;;;5052393;28;20178;-71
2023/08/03 00:34:17;;;;;;;1.53;0.90;;;18.10;99.90;;;;;;5052129;28;20170;-70
2023/08/03 00:36:43;;;;;;;5.03;1.07;;;18.00;99.90;;;;;;5050992;28;20186;-70
2023/08/03 00:39:08;;;;;;;1.87;1.00;;;18.00;99.90;;;;;;5052145;28;20828;-70
2023/08/03 00:41:34;;;;;;;1.40;1.30;;;17.90;99.90;;;;;;5047756;28;20213;-70
2023/08/03 00:44:00;;;;;;;1.17;1.00;;;17.90;99.90;;;;;;5052047;28;20177;-70
2023/08/03 00:46:26;;;;;;;1.43;0.80;;;17.90;99.90;;;;;;5051831;28;20928;-71
2023/08/03 00:48:51;;;;;;;1.20;0.90;;;17.90;99.90;;;;;;5051885;28;20535;-71
2023/08/03 00:51:17;;;;;;;2.10;1.03;;;17.90;99.90;;;;;;5051826;28;20724;-71
2023/08/03 00:53:45;;;;;;;1.30;0.90;;;18.00;99.90;;;;;;5054561;28;20240;-70
2023/08/03 00:56:11;;;;;;;1.53;0.80;;;18.00;99.90;;;;;;5041566;28;20544;-71
2023/08/03 00:58:39;;;;;;;1.70;1.10;;;18.10;99.90;;;;;;5053944;28;20922;-69
2023/08/03 01:01:05;;;;;;;2.80;0.90;;;18.10;99.90;;;;;;5055675;28;20457;-71
2023/08/03 01:03:31;;;;;;;1.10;0.80;;;18.20;99.90;;;;;;5055759;28;20476;-70
2023/08/03 01:05:56;;;;;;;1.00;0.90;;;18.20;99.90;;;;;;5055488;28;20398;-71
2023/08/03 01:08:23;;;;;;;2.70;1.30;;;18.20;99.90;;;;;;5054562;28;20183;-70
2023/08/03 01:10:48;;;;;;;1.60;0.70;;;18.30;99.90;;;;;;5055015;28;20244;-70
2023/08/03 01:13:14;;;;;;;3.87;1.00;;;18.20;99.90;;;;;;5051077;28;20820;-70
2023/08/03 01:15:39;;;;;;;5.13;1.27;;;18.20;99.90;;;;;;5055491;28;20837;-69
2023/08/03 01:18:05;;;;;;;1.83;0.83;;;18.10;99.90;;;;;;5054667;28;20206;-69
2023/08/03 01:20:33;;;;;;;2.40;1.10;;;18.10;99.90;;;;;;5054390;28;20226;-70
2023/08/03 01:22:58;;;;;;;1.10;0.93;;;18.00;99.90;;;;;;5055726;28;20159;-70
2023/08/03 01:25:24;;;;;;;1.30;0.90;;;18.00;99.90;;;;;;5055403;28;20910;-70
2023/08/03 01:27:49;;;;;;;1.77;0.93;;;18.00;99.90;;;;;;5052795;28;20183;-69
2023/08/03 01:30:15;;;;;;;0.90;0.70;;;17.90;99.90;;;;;;5054861;28;20187;-71
2023/08/03 01:32:41;;;;;;;1.33;0.90;;;18.00;99.90;;;;;;5055249;28;20632;-70
2023/08/03 01:35:07;;;;;;;1.00;0.73;;;18.00;99.90;;;;;;5054968;28;20208;-71
2023/08/03 01:37:36;;;;;;;1.00;0.80;;;18.00;99.90;;;;;;5054932;28;20163;-71
2023/08/03 01:40:03;;;;;;;1.10;0.70;;;18.00;99.90;;;;;;5048376;28;20806;-70
2023/08/03 01:42:28;;;;;;;2.07;1.00;;;18.00;99.90;;;;;;5054136;28;20460;-71
2023/08/03 01:44:54;;;;;;;5.60;1.30;;;18.10;99.90;;;;;;5054827;28;20742;-71
2023/08/03 01:47:19;;;;;;;1.40;0.90;;;18.00;99.90;;;;;;5052454;28;20221;-70
2023/08/03 01:49:45;;;;;;;2.37;0.80;;;18.10;99.90;;;;;;5054813;28;20554;-71
2023/08/03 01:52:10;;;;;;;2.80;0.80;;;18.00;99.90;;;;;;5054962;28;20171;-70
2023/08/03 01:54:36;;;;;;;1.93;0.70;;;18.00;99.90;;;;;;5053505;28;20179;-69
2023/08/03 01:57:01;;;;;;;0.90;0.70;;;18.00;99.90;;;;;;5054622;28;20598;-69
2023/08/03 01:59:27;;;;;;;0.90;0.77;;;18.00;99.90;;;;;;5054947;28;20191;-71
2023/08/03 02:01:52;;;;;;;1.47;0.87;;;17.90;99.90;;;;;;5053643;28;20847;-70
2023/08/03 02:04:18;;;;;;;0.90;0.73;;;17.90;99.90;;;;;;5053421;28;20167;-70
2023/08/03 02:06:49;;;;;;;2.80;0.60;;;17.80;99.90;;;;;;5053244;28;20167;-71
2023/08/03 02:09:15;;;;;;;4.10;1.00;;;17.80;99.90;;;;;;5045722;28;20648;-72
2023/08/03 02:11:41;;;;;;;1.13;0.87;;;17.80;99.90;;;;;;5054550;28;20426;-70
2023/08/03 02:14:07;;;;;;;0.90;0.70;;;17.70;99.90;;;;;;5054861;28;20194;-71
2023/08/03 02:16:33;;;;;;;2.00;1.00;;;17.60;99.90;;;;;;5054601;28;20492;-70
2023/08/03 02:18:58;;;;;;;0.90;0.60;;;17.60;99.90;;;;;;5054742;28;20290;-69
2023/08/03 02:21:24;;;;;;;1.00;0.90;;;17.60;99.90;;;;;;5051551;28;20293;-70
2023/08/03 02:23:49;;;;;;;1.10;1.00;;;17.50;99.90;;;;;;5040338;28;20176;-70
2023/08/03 02:26:15;;;;;;;1.20;1.10;;;17.40;99.90;;;;;;5047975;28;20293;-71
2023/08/03 02:28:41;;;;;;;1.40;1.10;;;17.40;99.90;;;;;;5054413;28;20694;-71
2023/08/03 02:31:06;;;;;;;3.57;1.23;;;17.40;99.90;;;;;;5054265;28;20201;-71
2023/08/03 02:33:32;;;;;;;1.07;0.83;;;17.40;99.90;;;;;;5054331;28;20179;-71
2023/08/03 02:35:57;;;;;;;1.03;0.70;;;17.40;99.90;;;;;;5053942;28;20175;-71
2023/08/03 02:38:23;;;;;;;1.93;0.93;;;17.40;99.90;;;;;;5050361;28;20181;-69
2023/08/03 02:40:48;;;;;;;0.90;0.80;;;17.50;99.90;;;;;;5053891;28;20614;-70
2023/08/03 02:43:14;;;;;;;2.13;0.70;;;17.50;99.90;;;;;;5054008;28;20660;-71
2023/08/03 02:45:39;;;;;;;1.37;0.97;;;17.50;99.90;;;;;;5053750;28;20220;-70
2023/08/03 02:48:05;;;;;;;5.77;2.30;;;17.50;99.90;;;;;;5053982;28;20167;-71
2023/08/03 02:50:30;;;;;;;2.63;1.07;;;17.50;99.90;;;;;;5053880;28;20209;-70
2023/08/03 02:52:56;;;;;;;2.17;1.40;;;17.60;99.90;;;;;;5053984;28;20159;-70
2023/08/03 02:55:21;;;;;;;1.40;0.83;;;17.50;99.90;;;;;;5047372;28;20186;-70
2023/08/03 02:57:47;;;;;;;1.00;0.90;;;17.60;99.90;;;;;;5052406;28;20624;-70
2023/08/03 03:00:13;;;;;;;1.10;0.80;;;17.60;99.90;;;;;;5053756;28;20237;-70
2023/08/03 03:02:38;;;;;;;2.57;1.67;;;17.70;99.90;;;;;;5053708;28;20929;-70
2023/08/03 03:05:04;;;;;;;1.10;0.83;;;17.70;99.90;;;;;;5053283;28;20173;-70
2023/08/03 03:07:33;;;;;;;2.00;0.97;;;17.70;99.90;;;;;;5053513;28;20258;-71
2023/08/03 03:09:59;;;;;;;0.80;0.60;;;17.70;99.90;;;;;;5053377;28;20582;-71
2023/08/03 03:12:24;;;;;;;0.90;0.70;;;17.70;99.90;;;;;;5049895;28;20470;-70
2023/08/03 03:14:50;;;;;;;1.03;0.80;;;17.70;99.90;;;;;;5052117;28;20288;-71
2023/08/03 03:17:16;;;;;;;1.30;0.90;;;17.70;99.90;;;;;;5052634;28;20242;-71
2023/08/03 03:19:41;;;;;;;2.40;0.83;;;17.70;99.90;;;;;;5053303;28;20209;-71
2023/08/03 03:22:07;;;;;;;0.90;0.60;;;17.80;99.90;;;;;;5053319;28;20233;-70
2023/08/03 03:24:33;;;;;;;0.93;0.70;;;17.70;99.90;;;;;;5052136;28;20194;-70
2023/08/03 03:26:58;;;;;;;1.10;1.00;;;17.70;99.90;;;;;;5053053;28;20628;-70
2023/08/03 03:29:24;;;;;;;2.80;0.80;;;17.70;99.90;;;;;;5042472;28;20263;-70
2023/08/03 03:31:50;;;;;;;1.30;0.90;;;17.70;99.90;;;;;;5045576;28;20201;-70
2023/08/03 03:34:15;;;;;;;2.13;0.60;;;17.60;99.90;;;;;;5052997;28;20532;-70
2023/08/03 03:36:41;;;;;;;0.90;0.70;;;17.60;99.90;;;;;;5051428;28;20170;-70
2023/08/03 03:39:06;;;;;;;1.10;0.80;;;17.50;99.90;;;;;;5052941;28;20297;-71
2023/08/03 03:41:31;;;;;;;1.63;1.17;;;17.50;99.90;;;;;;5051471;28;20559;-70
2023/08/03 03:43:57;;;;;;;1.10;0.83;;;17.40;99.90;;;;;;5052827;28;20166;-70
2023/08/03 03:46:23;;;;;;;1.10;0.80;;;17.40;99.90;;;;;;5044594;28;20167;-71
2023/08/03 03:48:48;;;;;;;2.10;0.80;;;17.40;99.90;;;;;;5052875;28;20405;-71
2023/08/03 03:51:17;;;;;;;1.00;0.83;;;17.40;99.90;;;;;;5040074;28;20210;-71
2023/08/03 03:53:43;;;;;;;1.20;0.83;;;17.30;99.90;;;;;;5045924;28;20542;-72
2023/08/03 03:56:08;;;;;;;0.80;0.70;;;17.10;99.90;;;;;;5051223;28;20409;-70
2023/08/03 03:58:33;;;;;;;1.20;0.80;;;17.00;99.90;;;;;;5052599;28;20174;-70
2023/08/03 04:01:00;;;;;;;0.90;0.70;;;16.90;99.90;;;;;;5051160;28;20294;-70
2023/08/03 04:03:26;;;;;;;1.77;0.70;;;16.90;99.90;;;;;;5045505;28;20172;-70
2023/08/03 04:05:52;;;;;;;1.00;0.80;;;16.80;99.90;;;;;;5051324;28;20412;-70
2023/08/03 04:08:18;;;;;;;1.33;0.83;;;16.80;99.90;;;;;;5052283;28;20429;-71
2023/08/03 04:10:43;;;;;;;1.63;0.70;;;16.70;99.90;;;;;;5052248;28;20425;-69
2023/08/03 04:13:09;;;;;;;2.07;0.73;;;16.70;99.90;;;;;;5052267;28;20566;-69
2023/08/03 04:15:34;;;;;;;1.23;0.80;;;16.70;99.90;;;;;;5052174;28;20219;-71
2023/08/03 04:18:00;;;;;;;0.90;0.70;;;16.70;99.90;;;;;;5052227;28;20926;-71
2023/08/03 04:20:26;;;;;;;1.13;0.70;;;16.70;99.90;;;;;;5045813;28;20543;-71
2023/08/03 04:22:51;;;;;;;2.83;2.13;;;16.70;99.90;;;;;;5047777;28;20648;-71
2023/08/03 04:25:17;;;;;;;1.10;0.77;;;16.70;99.90;;;;;;5030646;28;20176;-70
2023/08/03 04:27:42;;;;;;;2.93;0.90;;;16.80;99.90;;;;;;5031522;28;20659;-71
2023/08/03 04:30:10;;;;;;;4.50;1.53;;;16.80;99.90;;;;;;5032171;28;20194;-70
2023/08/03 04:32:35;;;;;;;0.90;0.60;;;16.80;99.90;;;;;;5044168;28;20176;-71
2023/08/03 04:35:01;;;;;;;0.80;0.60;;;16.80;99.90;;;;;;5051851;28;20410;-71
2023/08/03 04:37:26;;;;;;;1.57;0.70;;;16.90;99.90;;;;;;5052053;28;20181;-71
2023/08/03 04:39:52;;;;;;;4.80;0.80;;;16.90;99.90;;;;;;5052096;28;20191;-71
2023/08/03 04:42:17;;;;;;;2.33;0.70;;;17.00;99.90;;;;;;5051912;28;20221;-71
2023/08/03 04:44:43;;;;;;;1.43;0.60;;;17.00;99.90;;;;;;5052022;28;20174;-71
2023/08/03 04:47:09;;;;;;;0.80;0.57;;;17.10;99.90;;;;;;5043496;28;20214;-70
2023/08/03 04:49:34;;;;;;;1.00;0.70;;;17.20;99.90;;;;;;5048812;28;20611;-70
2023/08/03 04:52:00;;;;;;;0.90;0.70;;;17.20;99.90;;;;;;5052085;28;20177;-70
2023/08/03 04:54:25;;;;;;;2.57;0.87;;;17.30;99.90;;;;;;5050938;28;20546;-70
2023/08/03 04:56:50;;;;;;;0.80;0.67;;;17.30;99.90;;;;;;5051733;28;20280;-70
2023/08/03 04:59:16;;;;;;;1.77;0.60;;;17.40;99.90;;;;;;5050554;28;20170;-71
2023/08/03 05:01:42;;;;;;;1.57;0.80;;;17.50;99.90;;;;;;5051751;28;20603;-70
2023/08/03 05:04:08;;;;;;;1.00;0.60;;;17.50;99.90;;;;;;5045176;28;20246;-70
2023/08/03 05:06:33;;;;;;;2.30;0.90;;;17.60;99.90;;;;;;5050117;28;20167;-70
2023/08/03 05:08:59;;;;;;;1.50;0.67;;;17.70;99.90;;;;;;5051935;28;20927;-70
2023/08/03 05:11:25;;;;;;;0.80;0.60;;;17.70;99.90;;;;;;5051791;28;20191;-71
2023/08/03 05:13:50;;;;;;;0.80;0.60;;;17.80;99.90;;;;;;5051697;28;20191;-70
2023/08/03 05:16:22;;;;;;;1.73;0.70;;;17.80;99.90;;;;;;5051311;28;20421;-71
2023/08/03 05:18:47;;;;;;;1.10;0.70;;;17.90;99.90;;;;;;5049725;28;20225;-71
2023/08/03 05:21:13;;;;;;;1.00;0.70;;;17.90;99.90;;;;;;5045208;28;20453;-71
2023/08/03 05:23:38;;;;;;;0.97;0.70;;;17.90;99.90;;;;;;5051848;28;20209;-70
2023/08/03 05:26:04;;;;;;;0.80;0.60;;;17.90;99.90;;;;;;5050227;28;20595;-70
2023/08/03 05:28:31;;;;;;;1.10;0.80;;;18.00;99.90;;;;;;5051673;28;20220;-71
2023/08/03 05:30:57;;;;;;;0.90;0.60;;;18.00;99.90;;;;;;5050188;28;20191;-71
2023/08/03 05:33:22;;;;;;;1.00;0.67;;;18.00;99.90;;;;;;5051612;28;20444;-72
2023/08/03 05:35:48;;;;;;;1.00;0.70;;;18.10;99.90;;;;;;5048402;28;20692;-71
2023/08/03 05:38:17;;;;;;;2.97;0.70;;;18.10;99.90;;;;;;5051502;28;20636;-71
2023/08/03 05:40:42;;;;;;;0.87;0.60;;;18.30;99.90;;;;;;5055330;28;20195;-71
2023/08/03 05:43:13;;;;;;;2.20;0.90;;;18.40;99.90;;;;;;5054295;28;20872;-71
2023/08/03 05:45:50;;;;;;;0.90;0.70;;;18.50;99.90;;;;;;5054900;28;20170;-70
2023/08/03 05:48:20;;;;;;;0.80;0.57;;;18.60;99.90;;;;;;5054049;28;20824;-70
2023/08/03 05:50:48;;;;;;;1.57;0.73;;;18.70;99.90;;;;;;5055145;28;20450;-70
2023/08/03 05:53:15;;;;;;;1.10;0.70;;;18.70;99.90;;;;;;5048958;28;20832;-70
2023/08/03 05:55:41;;;;;;;1.77;0.70;;;18.70;99.90;;;;;;5054676;28;20782;-70
2023/08/03 05:58:10;;;;;;;0.90;0.60;;;18.70;99.90;;;;;;5053665;28;20781;-71
2023/08/03 06:00:35;;;;;;;1.03;0.83;;;18.70;99.90;;;;;;5053483;28;20433;-70
2023/08/03 06:03:01;;;;;;;0.90;0.60;;;18.60;99.90;;;;;;5053656;28;20400;-71
2023/08/03 06:05:32;;;;;;;1.07;0.83;;;18.60;99.90;;;;;;5053246;28;20628;-71
2023/08/03 06:07:58;;;;;;;0.90;0.70;;;18.60;99.90;;;;;;5054736;28;20211;-70
2023/08/03 06:10:23;;;;;;;1.57;0.80;;;18.50;99.90;;;;;;5052259;28;20488;-71
2023/08/03 06:12:49;;;;;;;0.93;0.70;;;18.50;99.90;;;;;;5053285;28;20539;-70
2023/08/03 06:15:16;;;;;;;0.80;0.60;;;18.50;99.90;;;;;;5054449;28;20159;-70
2023/08/03 06:17:42;;;;;;;1.07;0.70;;;18.60;99.90;;;;;;5054627;28;20599;-70
2023/08/03 06:20:14;;;;;;;0.87;0.60;;;18.60;99.90;;;;;;5054600;28;20421;-71
2023/08/03 06:22:40;;;;;;;0.90;0.70;;;18.70;99.90;;;;;;5054526;28;20726;-70
2023/08/03 06:25:08;;;;;;;1.20;0.70;;;18.70;99.90;;;;;;5051505;28;20418;-70
2023/08/03 06:27:33;;;;;;;1.00;0.80;;;18.60;99.90;;;;;;5041335;28;20171;-70
2023/08/03 06:29:59;;;;;;;1.40;0.70;;;18.60;99.90;;;;;;5052935;28;20433;-71
2023/08/03 06:32:28;;;;;;;1.00;0.80;;;18.60;99.90;;;;;;5053048;28;20660;-68
2023/08/03 06:34:55;;;;;;;1.47;0.73;;;18.50;99.90;;;;;;5053778;28;20159;-69
2023/08/03 06:37:21;;;;;;;0.83;0.60;;;18.50;99.90;;;;;;5049796;28;20429;-68
2023/08/03 06:39:50;;;;;;;0.90;0.70;;;18.50;99.90;;;;;;5053885;28;20822;-68
2023/08/03 06:42:16;;;;;;;0.90;0.70;;;18.40;99.90;;;;;;5053038;28;20858;-68
2023/08/03 06:44:41;;;;;;;1.10;0.80;;;18.40;99.90;;;;;;5052585;28;20402;-68
2023/08/03 06:47:07;;;;;;;1.07;0.80;;;18.30;99.90;;;;;;5053674;28;20167;-68
2023/08/03 06:49:32;;;;;;;4.63;0.80;;;18.20;99.90;;;;;;5052498;28;20187;-69
2023/08/03 06:51:58;;;;;;;1.53;0.80;;;18.10;99.90;;;;;;5050526;28;20741;-68
2023/08/03 06:54:24;;;;;;;1.10;0.83;;;18.10;99.90;;;;;;5053720;28;20697;-68
2023/08/03 06:56:49;;;;;;;1.00;0.80;;;18.00;99.90;;;;;;5053661;28;20205;-69
2023/08/03 06:59:20;;;;;;;1.30;1.10;;;17.90;99.90;;;;;;5052412;28;20540;-70
2023/08/03 07:01:48;;;;;;;1.73;0.80;;;17.70;99.90;;;;;;5053639;28;20281;-68
2023/08/03 07:04:13;;;;;;;0.90;0.60;;;17.60;99.90;;;;;;5053648;28;20402;-69
2023/08/03 07:06:39;;;;;;;0.90;0.67;;;17.40;99.90;;;;;;5053117;28;20813;-70
2023/08/03 07:09:04;;;;;;;1.20;0.83;;;17.30;99.90;;;;;;5051883;28;20189;-68
2023/08/03 07:11:31;;;;;;;0.80;0.70;;;17.30;99.90;;;;;;5052099;28;20198;-69
2023/08/03 07:13:56;;;;;;;1.53;0.83;;;17.30;99.90;;;;;;5053433;28;20173;-69
2023/08/03 07:16:23;;;;;;;0.90;0.80;;;17.30;99.90;;;;;;5051819;28;20413;-68
2023/08/03 07:18:48;;;;;;;2.27;0.83;;;17.30;99.90;;;;;;5053343;28;20174;-68
2023/08/03 07:21:14;;;;;;;2.30;0.80;;;17.30;99.90;;;;;;5049624;28;20460;-68
2023/08/03 07:23:40;;;;;;;2.37;1.07;;;17.40;99.90;;;;;;5052465;28;20193;-68
2023/08/03 07:26:14;;;;;;;1.10;0.97;;;17.40;99.90;;;;;;5052844;28;20163;-68
2023/08/03 07:28:39;;;;;;;1.20;0.83;;;17.50;99.90;;;;;;5051789;28;20635;-68
2023/08/03 07:31:05;;;;;;;1.10;0.90;;;17.50;99.90;;;;;;5052989;28;20490;-68
2023/08/03 07:33:30;;;;;;;1.17;0.97;;;17.50;99.90;;;;;;5045029;28;20215;-67
2023/08/03 07:35:56;;;;;;;1.60;1.10;;;17.60;99.90;;;;;;5043459;28;20261;-66
2023/08/03 07:38:22;;;;;;;1.57;0.93;;;17.70;99.90;;;;;;5052981;28;20183;-66
2023/08/03 07:40:47;;;;;;;1.87;1.20;;;17.70;99.90;;;;;;5052734;28;20273;-67
2023/08/03 07:43:13;;;;;;;3.27;0.90;;;17.80;99.90;;;;;;5052930;28;20159;-67
2023/08/03 07:45:39;;;;;;;1.10;0.80;;;17.90;99.90;;;;;;5052587;28;20221;-68
2023/08/03 07:48:04;;;;;;;1.73;1.00;;;18.10;99.90;;;;;;5051634;28;20224;-68
2023/08/03 07:50:30;;;;;;;1.00;0.90;;;18.20;99.90;;;;;;5051205;28;20429;-68
2023/08/03 07:52:55;;;;;;;2.00;0.90;;;18.20;99.90;;;;;;5052744;28;20677;-68
2023/08/03 07:55:21;;;;;;;1.40;0.87;;;18.30;99.90;;;;;;5051287;28;20520;-67
2023/08/03 07:57:46;;;;;;;1.23;0.90;;;18.40;99.90;;;;;;5052634;28;20167;-68
2023/08/03 08:00:12;;;;;;;1.13;1.03;;;18.50;99.90;;;;;;5052525;28;20270;-66
2023/08/03 08:02:38;;;;;;;1.23;0.77;;;18.60;99.90;;;;;;5052284;28;20190;-68
2023/08/03 08:05:04;;;;;;;4.23;1.50;;;18.80;99.90;;;;;;5048659;28;20461;-70
2023/08/03 08:07:29;;;;;;;2.17;1.00;;;18.90;99.90;;;;;;5052241;28;20214;-67
2023/08/03 08:09:55;;;;;;;1.10;0.80;;;19.00;99.90;;;;;;5052388;28;20547;-69
2023/08/03 08:12:20;;;;;;;1.10;0.90;;;19.10;99.90;;;;;;5052696;28;20632;-67
2023/08/03 08:14:46;;;;;;;1.97;0.70;;;19.10;99.90;;;;;;5049782;28;20174;-67
2023/08/03 08:17:12;;;;;;;1.20;0.90;;;19.10;99.90;;;;;;5051286;28;20175;-67
2023/08/03 08:19:38;;;;;;;1.53;0.80;;;19.00;99.90;;;;;;5050632;28;20936;-67
2023/08/03 08:22:03;;;;;;;1.53;1.13;;;18.90;99.90;;;;;;5050599;28;20203;-68
2023/08/03 08:24:29;;;;;;;0.90;0.80;;;18.90;99.90;;;;;;5050781;28;20821;-68
2023/08/03 08:26:54;;;;;;;1.07;0.80;;;18.80;99.90;;;;;;5052088;28;20159;-67
2023/08/03 08:29:20;;;;;;;0.97;0.80;;;18.80;99.90;;;;;;5051091;28;20217;-67
2023/08/03 08:31:46;;;;;;;1.37;1.00;;;18.80;99.90;;;;;;5052002;28;20166;-67
2023/08/03 08:34:11;;;;;;;0.90;0.70;;;18.80;99.90;;;;;;5052020;28;20194;-67
2023/08/03 08:36:36;;;;;;;3.30;0.90;;;18.90;99.90;;;;;;5051751;28;20175;-68
2023/08/03 08:39:02;;;;;;;2.60;0.90;;;19.00;99.90;;;;;;5052091;28;20174;-67
2023/08/03 08:41:28;;;;;;;0.90;0.70;;;19.20;99.90;;;;;;5051924;28;20199;-67
2023/08/03 08:43:54;;;;;;;1.00;0.80;;;19.30;99.90;;;;;;5050680;28;20937;-67
2023/08/03 08:46:19;;;;;;;0.87;0.70;;;19.30;99.90;;;;;;5043943;28;20254;-68
2023/08/03 08:48:45;;;;;;;1.93;0.90;;;19.30;99.90;;;;;;5050009;28;20167;-68
2023/08/03 08:51:11;;;;;;;1.37;0.80;;;19.30;99.90;;;;;;5050121;28;20201;-67
2023/08/03 08:53:36;;;;;;;1.10;0.70;;;19.20;99.90;;;;;;5051931;28;20174;-67
2023/08/03 08:56:02;;;;;;;1.00;0.70;;;19.20;99.90;;;;;;5050288;28;20925;-68
2023/08/03 08:58:28;;;;;;;0.80;0.60;;;19.10;99.90;;;;;;5051885;28;20171;-67
2023/08/03 09:01:02;;;;;;;1.87;0.90;;;19.10;99.90;;;;;;5050350;28;20203;-66
2023/08/03 09:03:45;;;;;;;1.00;0.70;;;19.10;99.90;;;;;;5051762;28;20163;-68
2023/08/03 09:06:11;;;;;;;0.90;0.70;;;19.20;99.90;;;;;;5049191;28;20417;-68
2023/08/03 09:08:54;;;;;;;1.10;0.80;;;19.20;99.90;;;;;;5050433;28;20796;-67
2023/08/03 09:11:41;;;;;;;0.90;0.80;;;19.40;99.90;;;;;;5051666;28;20183;-68
2023/08/03 09:14:07;;;;;;;1.27;0.70;;;19.60;99.90;;;;;;5052814;28;20408;-67
2023/08/03 09:16:33;;;;;;;1.13;0.80;;;20.00;99.90;;;;;;5055391;28;20412;-67
2023/08/03 09:18:59;;;;;;;1.30;0.77;;;21.00;99.90;;;;;;5055874;28;20495;-67
2023/08/03 09:21:25;;;;;;;2.47;1.03;;;22.20;99.90;;;;;;5053054;28;20236;-67
2023/08/03 09:23:50;;;;;;;0.90;0.60;;;23.60;99.90;;;;;;5054216;28;20167;-68
2023/08/03 09:26:24;;;;;;;1.00;0.70;;;26.60;99.90;;;;;;5055057;28;20412;-68
2023/08/03 09:28:50;;;;;;;1.10;0.90;;;29.00;99.90;;;;;;5054289;28;20170;-68
2023/08/03 09:31:25;;;;;;;1.00;0.90;;;29.30;99.90;;;;;;5055345;28;20843;-67
2023/08/03 09:33:55;;;;;;;1.50;0.80;;;29.00;99.90;;;;;;5053622;28;20429;-68
2023/08/03 09:36:21;;;;;;;1.40;0.80;;;29.00;99.40;;;;;;5051450;28;20796;-68
2023/08/03 09:38:47;;;;;;;2.90;0.90;;;30.10;98.90;;;;;;5053779;28;20417;-68
2023/08/03 09:41:13;;;;;;;1.87;0.90;;;31.30;90.20;;;;;;5055151;28;20195;-67
2023/08/03 09:43:40;;;;;;;1.67;1.10;;;31.60;77.00;;;;;;5055053;28;20201;-68
2023/08/03 09:46:06;;;;;;;1.93;1.10;;;32.30;72.10;;;;;;5055014;28;20433;-69
2023/08/03 09:48:31;;;;;;;1.60;1.00;;;33.00;72.70;;;;;;5045240;28;21011;-68
2023/08/03 09:50:58;;;;;;;1.67;1.20;;;33.70;61.10;;;;;;5054897;28;20198;-69
2023/08/03 09:53:28;;;;;;;1.80;1.00;;;32.80;57.80;;;;;;5054919;28;20182;-68
2023/08/03 09:56:00;;;;;;;3.07;1.00;;;31.90;58.30;;;;;;5054654;28;20405;-68
2023/08/03 09:58:49;;;;;;;2.93;1.10;;;31.20;60.90;;;;;;5054967;28;20431;-68
2023/08/03 10:01:18;;;;;;;2.00;1.00;;;30.70;61.60;;;;;;5054782;28;20448;-68
2023/08/03 10:03:49;;;;;;;1.97;1.17;;;29.90;62.60;;;;;;5049316;28;20426;-67
2023/08/03 10:06:17;;;;;;;2.00;1.13;;;28.80;67.30;;;;;;5053376;28;20412;-68
2023/08/03 10:08:42;;;;;;;1.30;1.07;;;28.20;70.80;;;;;;5054657;28;20425;-68
2023/08/03 10:11:10;;;;;;;1.93;1.10;;;27.80;77.50;;;;;;5054621;28;20431;-68
2023/08/03 10:13:41;;;;;;;1.03;0.93;;;27.80;78.30;;;;;;5053446;28;20228;-67
2023/08/03 10:16:06;;;;;;;1.60;1.50;;;27.70;80.60;;;;;;5054333;28;20407;-68
2023/08/03 10:18:35;;;;;;;2.27;1.03;;;28.50;82.80;;;;;;5054519;28;20413;-68
2023/08/03 10:21:01;;;;;;;3.43;1.30;;;29.40;77.60;;;;;;5047830;28;20286;-67
2023/08/03 10:23:28;;;;;;;1.57;1.10;;;30.20;73.00;;;;;;5047926;28;20854;-68
2023/08/03 10:25:59;;;;;;;1.33;0.83;;;31.90;66.30;;;;;;5051516;28;20181;-68
2023/08/03 10:28:39;;;;;;;3.50;1.60;;;33.30;62.80;;;;;;5054379;28;20513;-69
2023/08/03 10:31:14;;;;;;;5.00;1.30;;;34.30;55.60;;;;;;5054130;28;20417;-67
2023/08/03 10:33:51;;;;;;;1.30;1.20;;;34.00;51.80;;;;;;5054399;28;20428;-68
2023/08/03 10:36:33;;;;;;;2.00;1.20;;;32.80;52.70;;;;;;5053922;28;20447;-68
2023/08/03 10:39:03;;;;;;;1.40;0.93;;;32.20;54.60;;;;;;5036703;28;20451;-69
2023/08/03 10:41:37;;;;;;;1.13;0.90;;;32.50;54.40;;;;;;5046793;28;21245;-67
2023/08/03 10:44:05;;;;;;;3.53;1.23;;;34.00;54.90;;;;;;5054093;28;20397;-69
2023/08/03 10:46:50;;;;;;;2.17;1.40;;;33.30;50.60;;;;;;5053759;28;20485;-69
2023/08/03 10:49:22;;;;;;;2.93;1.10;;;33.00;51.60;;;;;;5053960;28;20401;-69
2023/08/03 10:51:49;;;;;;;2.97;1.43;;;32.60;51.50;;;;;;5053847;28;20777;-69
2023/08/03 10:54:15;;;;;;;1.63;1.27;;;31.40;52.50;;;;;;5050093;28;20429;-67
2023/08/03 10:57:01;;;;;;;1.30;0.93;;;30.40;54.80;;;;;;5052659;28;20435;-67
2023/08/03 10:59:27;;;;;;;2.40;1.33;;;30.70;56.70;;;;;;5052414;28;20800;-69
2023/08/03 11:01:53;;;;;;;2.67;1.20;;;30.80;56.30;;;;;;5052160;28;20468;-68
2023/08/03 11:04:23;;;;;;;1.40;1.13;;;30.20;56.20;;;;;;5044739;28;20239;-68
2023/08/03 11:06:50;;;;;;;1.47;1.30;;;28.90;57.50;;;;;;5050754;28;20213;-68
2023/08/03 11:09:16;;;;;;;1.60;1.50;;;27.30;62.30;;;;;;5052241;28;20413;-67
2023/08/03 11:11:44;;;;;;;13.20;7.77;;;27.00;73.80;;;;;;5051779;28;20433;-67
2023/08/03 11:14:10;;;;;;;2.60;1.00;;;28.00;78.60;;;;;;5053439;28;20167;-68
2023/08/03 11:16:36;;;;;;;3.70;1.60;;;30.40;74.70;;;;;;5051739;28;20413;-67
2023/08/03 11:19:02;;;;;;;3.77;2.17;;;33.00;62.10;;;;;;5053350;28;20167;-67
2023/08/03 11:21:27;;;;;;;2.10;1.63;;;36.00;54.80;;;;;;5052059;28;20464;-68
2023/08/03 11:23:53;;;;;;;2.87;1.83;;;38.30;48.30;;;;;;5050960;28;20651;-69
2023/08/03 11:26:18;;;;;;;2.77;1.30;;;40.20;43.70;;;;;;5052637;28;20643;-69
2023/08/03 11:28:44;;;;;;;2.43;2.07;;;40.70;40.60;;;;;;5053145;28;20181;-69
2023/08/03 11:31:21;;;;;;;2.67;2.10;;;40.40;38.90;;;;;;5052975;28;20187;-69
2023/08/03 11:33:54;;;;;;;4.90;1.73;;;38.60;38.30;;;;;;5053111;28;20173;-69
2023/08/03 11:36:23;;;;;;;2.40;1.70;;;37.10;39.50;;;;;;5052247;28;20415;-69
2023/08/03 11:38:51;;;;;;;4.30;2.40;;;35.10;42.20;;;;;;5048117;28;20487;-69
2023/08/03 11:41:19;;;;;;;3.57;3.20;;;34.00;44.20;;;;;;5052650;28;20445;-69
2023/08/03 11:43:46;;;;;;;2.60;1.63;;;32.90;45.60;;;;;;5052785;28;20400;-69
2023/08/03 11:46:12;;;;;;;5.97;2.00;;;32.60;47.80;;;;;;5052589;28;20733;-69
2023/08/03 11:48:43;;;;;;;2.90;2.60;;;33.20;48.10;;;;;;5052889;28;20416;-68
2023/08/03 11:51:09;;;;;;;1.77;1.40;;;33.20;47.10;;;;;;5051531;28;20252;-68
2023/08/03 11:53:34;;;;;;;2.13;1.10;;;32.50;48.30;;;;;;5052529;28;20413;-68
2023/08/03 11:56:00;;;;;;;2.30;1.60;;;33.10;49.80;;;;;;5052438;28;20296;-68
2023/08/03 11:58:26;;;;;;;2.70;1.70;;;33.10;49.10;;;;;;5052614;28;20166;-68
2023/08/03 12:01:00;;;;;;;1.73;1.63;;;33.00;47.20;;;;;;5052781;28;20197;-67
2023/08/03 12:03:34;;;;;;;2.00;1.80;;;31.80;48.20;;;;;;5050147;28;20459;-67
2023/08/03 12:06:11;;;;;;;2.50;1.43;;;30.20;49.80;;;;;;5044253;28;20495;-67
2023/08/03 12:08:47;;;;;;;3.87;1.47;;;29.50;53.20;;;;;;5052339;28;20425;-68
2023/08/03 12:11:17;;;;;;;2.30;1.50;;;30.30;55.20;;;;;;5051139;28;20881;-68
2023/08/03 12:13:46;;;;;;;1.87;1.63;;;32.60;52.60;;;;;;5052352;28;20406;-68
2023/08/03 12:16:11;;;;;;;1.53;1.43;;;34.50;48.60;;;;;;5052100;28;20409;-69
2023/08/03 12:18:37;;;;;;;1.33;1.23;;;36.50;47.80;;;;;;5043937;28;20415;-69
2023/08/03 12:21:03;;;;;;;1.43;1.20;;;37.90;47.00;;;;;;5052034;28;20332;-69
2023/08/03 12:23:28;;;;;;;1.43;1.30;;;38.10;42.70;;;;;;5047818;28;20256;-70
2023/08/03 12:25:54;;;;;;;1.93;1.40;;;37.70;43.70;;;;;;5045574;28;20413;-69
2023/08/03 12:28:21;;;;;;;4.37;2.00;;;38.40;42.90;;;;;;5052114;28;20293;-69
2023/08/03 12:30:46;;;;;;;1.30;1.20;;;39.60;40.80;;;;;;5051994;28;20768;-71
2023/08/03 12:33:12;;;;;;;1.67;1.30;;;40.10;37.80;;;;;;5044880;28;20425;-69
2023/08/03 12:35:38;;;;;;;1.10;1.00;;;38.80;38.00;;;;;;5051431;28;20258;-68
2023/08/03 12:38:03;;;;;;;2.43;1.30;;;37.10;39.10;;;;;;5050853;28;20537;-68
2023/08/03 12:40:29;;;;;;;3.87;1.47;;;35.20;41.00;;;;;;5051863;28;20183;-68
2023/08/03 12:42:55;;;;;;;1.70;1.40;;;33.60;43.50;;;;;;5051852;28;20199;-68
2023/08/03 12:45:23;;;;;;;2.13;1.70;;;32.20;46.50;;;;;;5051747;28;20170;-69